createdAt,value
2022-07-30T00:01:14.907Z,58.23
2022-07-30T00:03:41.615Z,58.33
2022-07-30T00:06:08.327Z,58.24
2022-07-30T00:08:34.797Z,57.61
2022-07-30T00:11:01.407Z,57.25
2022-07-30T00:13:27.887Z,58.42
2022-07-30T00:15:54.399Z,59.02
2022-07-30T00:18:22.351Z,57.92
2022-07-30T00:20:49.092Z,58.28
2022-07-30T00:23:15.666Z,59.94
2022-07-30T00:25:42.203Z,60.38
2022-07-30T00:28:08.630Z,61.13
2022-07-30T00:30:35.229Z,60.07
2022-07-30T00:33:01.906Z,60.21
2022-07-30T00:35:28.512Z,60.15
2022-07-30T00:37:55.052Z,60.58
2022-07-30T00:40:21.779Z,60.41
2022-07-30T00:42:48.499Z,60.70
2022-07-30T00:45:16.752Z,59.37
2022-07-30T00:47:43.461Z,57.99
2022-07-30T00:50:12.551Z,58.86
2022-07-30T00:52:40.366Z,59.69
2022-07-30T00:55:09.164Z,57.61
2022-07-30T00:57:35.852Z,57.61
2022-07-30T01:00:04.888Z,59.81
2022-07-30T01:02:31.518Z,59.42
2022-07-30T01:04:57.989Z,60.37
2022-07-30T01:07:27.163Z,62.97
2022-07-30T01:09:53.918Z,63.39
2022-07-30T01:12:23.293Z,63.94
2022-07-30T01:14:50.744Z,63.73
2022-07-30T01:17:17.397Z,64.02
2022-07-30T01:19:55.891Z,62.46
2022-07-30T01:23:04.854Z,60.36
2022-07-30T01:25:32.198Z,60.72
2022-07-30T01:28:07.332Z,63.49
2022-07-30T01:30:38.530Z,62.96
2022-07-30T01:33:07.457Z,61.11
2022-07-30T01:35:35.690Z,60.37
2022-07-30T01:38:05.785Z,60.29
2022-07-30T01:40:34.928Z,60.27
2022-07-30T01:43:03.051Z,61.93
2022-07-30T01:45:31.388Z,62.49
2022-07-30T01:48:05.331Z,63.17
2022-07-30T01:50:32.752Z,63.36
2022-07-30T01:53:00.406Z,64.55
2022-07-30T01:55:32.443Z,64.86
2022-07-30T01:58:01.102Z,62.00
2022-07-30T02:00:34.545Z,61.36
2022-07-30T02:03:01.059Z,60.75
2022-07-30T02:05:31.492Z,60.50
2022-07-30T02:08:06.130Z,61.96
2022-07-30T02:10:36.949Z,61.91
2022-07-30T02:13:07.297Z,64.57
2022-07-30T02:15:52.444Z,65.37
2022-07-30T02:18:30.858Z,63.59
2022-07-30T02:21:07.255Z,64.96
2022-07-30T02:23:46.328Z,65.67
2022-07-30T02:26:20.695Z,64.36
2022-07-30T02:28:51.441Z,65.13
2022-07-30T02:31:25.361Z,63.90
2022-07-30T02:33:58.181Z,63.77
2022-07-30T02:36:27.633Z,63.67
2022-07-30T02:38:56.455Z,64.84
2022-07-30T02:41:26.669Z,65.76
2022-07-30T02:43:55.064Z,66.93
2022-07-30T02:46:24.011Z,66.86
2022-07-30T02:49:10.793Z,65.58
2022-07-30T02:51:40.157Z,64.46
2022-07-30T02:54:08.402Z,64.47
2022-07-30T02:56:37.503Z,63.61
2022-07-30T02:59:06.148Z,62.63
2022-07-30T03:01:33.982Z,62.57
2022-07-30T03:04:02.572Z,61.57
2022-07-30T03:06:30.691Z,61.98
2022-07-30T03:08:59.221Z,62.15
2022-07-30T03:11:27.965Z,62.49
2022-07-30T03:13:55.917Z,63.23
2022-07-30T03:16:24.760Z,63.98
2022-07-30T03:18:53.376Z,63.72
2022-07-30T03:21:21.950Z,64.41
2022-07-30T03:23:50.386Z,64.77
2022-07-30T03:26:21.419Z,63.57
2022-07-30T03:28:49.599Z,63.44
2022-07-30T03:31:16.968Z,64.30
2022-07-30T03:33:46.650Z,64.12
2022-07-30T03:36:15.641Z,63.87
2022-07-30T03:38:43.900Z,64.24
2022-07-30T03:41:11.510Z,64.95
2022-07-30T03:43:40.587Z,64.12
2022-07-30T03:46:09.406Z,64.00
2022-07-30T03:48:41.444Z,64.48
2022-07-30T03:51:11.437Z,64.76
2022-07-30T03:53:41.003Z,67.16
2022-07-30T03:56:27.453Z,67.00
2022-07-30T03:59:09.597Z,65.62
2022-07-30T04:01:39.974Z,66.77
2022-07-30T04:04:25.836Z,68.78
2022-07-30T04:06:53.889Z,68.47
2022-07-30T04:09:20.445Z,68.08
2022-07-30T04:11:48.228Z,67.40
2022-07-30T04:14:17.038Z,67.28
2022-07-30T04:17:00.417Z,68.06
2022-07-30T04:19:47.278Z,67.40
2022-07-30T04:22:20.327Z,67.70
2022-07-30T04:24:49.162Z,67.57
2022-07-30T04:27:17.004Z,66.19
2022-07-30T04:29:44.538Z,66.77
2022-07-30T04:32:12.133Z,65.74
2022-07-30T04:34:57.531Z,66.73
2022-07-30T04:37:42.839Z,67.17
2022-07-30T04:40:09.786Z,67.00
2022-07-30T04:42:36.481Z,67.26
2022-07-30T04:45:07.000Z,67.11
2022-07-30T04:47:48.485Z,66.80
2022-07-30T04:50:35.940Z,66.51
2022-07-30T04:53:05.885Z,66.59
2022-07-30T04:55:39.077Z,66.53
2022-07-30T04:58:07.188Z,66.06
2022-07-30T05:00:40.467Z,65.96
2022-07-30T05:03:12.961Z,65.82
2022-07-30T05:05:43.431Z,65.08
2022-07-30T05:08:10.196Z,64.98
2022-07-30T05:10:38.298Z,65.57
2022-07-30T05:13:11.122Z,64.88
2022-07-30T05:15:40.518Z,64.64
2022-07-30T05:18:10.693Z,64.25
2022-07-30T05:20:40.729Z,64.10
2022-07-30T05:23:15.150Z,63.05
2022-07-30T05:25:46.799Z,62.17
2022-07-30T05:28:16.513Z,60.90
2022-07-30T05:30:44.476Z,60.03
2022-07-30T05:33:16.082Z,58.54
2022-07-30T05:35:43.519Z,57.38
2022-07-30T05:38:10.271Z,56.82
2022-07-30T05:40:50.400Z,56.23
2022-07-30T05:43:38.070Z,55.58
2022-07-30T05:46:04.556Z,54.77
2022-07-30T05:48:35.155Z,53.63
2022-07-30T05:51:05.277Z,51.78
2022-07-30T05:53:32.013Z,51.71
2022-07-30T05:56:26.009Z,50.01
2022-07-30T05:59:02.618Z,50.55
2022-07-30T06:01:52.156Z,49.81
2022-07-30T06:04:25.465Z,49.17
2022-07-30T06:06:58.283Z,49.13
2022-07-30T06:09:36.120Z,48.66
2022-07-30T06:12:04.650Z,47.85
2022-07-30T06:14:32.316Z,47.33
2022-07-30T06:16:59.391Z,47.01
2022-07-30T06:19:30.858Z,46.61
2022-07-30T06:22:05.592Z,45.92
2022-07-30T06:24:38.742Z,45.51
2022-07-30T06:27:18.520Z,44.52
2022-07-30T06:29:45.017Z,44.55
2022-07-30T06:32:11.800Z,44.21
2022-07-30T06:34:38.344Z,43.62
2022-07-30T06:37:04.853Z,43.67
2022-07-30T06:39:57.526Z,43.08
2022-07-30T06:42:45.149Z,42.25
2022-07-30T06:45:35.880Z,42.35
2022-07-30T06:48:16.555Z,41.97
2022-07-30T06:50:43.346Z,40.82
2022-07-30T06:53:10.269Z,40.19
2022-07-30T06:55:58.572Z,39.73
2022-07-30T06:58:31.813Z,39.00
2022-07-30T07:01:18.470Z,38.91
2022-07-30T07:03:45.254Z,38.78
2022-07-30T07:06:11.694Z,38.41
2022-07-30T07:08:38.567Z,37.81
2022-07-30T07:11:06.733Z,37.83
2022-07-30T07:13:42.544Z,38.16
2022-07-30T07:16:12.990Z,38.62
2022-07-30T07:18:43.614Z,38.80
2022-07-30T07:21:10.728Z,38.85
2022-07-30T07:23:41.727Z,39.42
2022-07-30T07:26:14.036Z,39.57
2022-07-30T07:28:40.920Z,40.04
2022-07-30T07:31:10.729Z,39.27
2022-07-30T07:33:38.400Z,38.78
2022-07-30T07:36:05.168Z,38.17
2022-07-30T07:38:32.586Z,38.33
2022-07-30T07:41:00.112Z,38.43
2022-07-30T07:43:27.946Z,39.08
2022-07-30T07:45:58.915Z,38.12
2022-07-30T07:48:28.252Z,37.11
2022-07-30T07:51:02.426Z,36.90
2022-07-30T07:53:32.104Z,35.80
2022-07-30T07:55:59.549Z,34.96
2022-07-30T07:58:26.884Z,34.52
2022-07-30T08:00:57.377Z,34.50
2022-07-30T08:03:39.682Z,33.90
2022-07-30T08:06:25.392Z,33.60
2022-07-30T08:09:23.876Z,33.68
2022-07-30T08:12:05.894Z,32.88
2022-07-30T08:14:50.767Z,33.05
2022-07-30T08:17:47.024Z,32.09
2022-07-30T08:20:19.530Z,31.55
2022-07-30T08:22:45.998Z,31.15
2022-07-30T08:25:22.433Z,29.87
2022-07-30T08:27:52.578Z,29.84
2022-07-30T08:30:19.931Z,30.33
2022-07-30T08:32:46.425Z,30.59
2022-07-30T08:35:13.578Z,30.68
2022-07-30T08:37:41.076Z,30.10
2022-07-30T08:40:08.646Z,30.31
2022-07-30T08:42:42.490Z,28.03
2022-07-30T08:45:12.301Z,27.55
2022-07-30T08:47:40.896Z,28.68
2022-07-30T08:50:11.435Z,28.33
2022-07-30T08:52:55.706Z,27.79
2022-07-30T08:55:23.367Z,27.83
2022-07-30T08:57:50.551Z,27.22
2022-07-30T09:00:18.678Z,27.33
2022-07-30T09:02:45.240Z,27.38
2022-07-30T09:05:13.079Z,27.79
2022-07-30T09:07:40.094Z,27.36
2022-07-30T09:10:11.851Z,27.02
2022-07-30T09:12:41.898Z,26.80
2022-07-30T09:15:18.146Z,27.75
2022-07-30T09:17:51.871Z,27.70
2022-07-30T09:20:20.838Z,28.16
2022-07-30T09:22:58.744Z,27.92
2022-07-30T09:25:46.589Z,27.90
2022-07-30T09:28:34.907Z,28.29
2022-07-30T09:31:13.560Z,28.01
2022-07-30T09:34:30.756Z,27.81
2022-07-30T09:37:02.362Z,28.13
2022-07-30T09:39:59.518Z,27.71
2022-07-30T09:42:45.029Z,27.86
2022-07-30T09:45:14.077Z,27.69
2022-07-30T09:47:48.432Z,27.68
2022-07-30T09:50:29.403Z,27.18
2022-07-30T09:53:07.407Z,26.87
2022-07-30T09:55:36.451Z,26.46
2022-07-30T09:58:09.124Z,26.66
2022-07-30T10:00:37.191Z,26.95
2022-07-30T10:03:33.575Z,26.46
2022-07-30T10:06:35.145Z,26.19
2022-07-30T10:09:14.366Z,26.51
2022-07-30T10:11:48.336Z,26.03
2022-07-30T10:14:15.340Z,26.01
2022-07-30T10:16:42.218Z,26.24
2022-07-30T10:19:13.793Z,26.35
2022-07-30T10:22:11.619Z,25.89
2022-07-30T10:24:57.180Z,26.25
2022-07-30T10:27:42.574Z,26.07
2022-07-30T10:30:28.025Z,26.14
2022-07-30T10:32:57.529Z,25.91
2022-07-30T10:35:31.222Z,25.83
2022-07-30T10:38:08.106Z,26.00
2022-07-30T10:40:40.504Z,25.59
2022-07-30T10:43:31.505Z,25.45
2022-07-30T10:46:19.949Z,26.21
2022-07-30T10:48:50.093Z,26.75
2022-07-30T10:51:25.651Z,26.64
2022-07-30T10:54:01.116Z,26.74
2022-07-30T10:56:27.798Z,25.78
2022-07-30T10:59:09.688Z,25.35
2022-07-30T11:01:51.750Z,25.54
2022-07-30T11:04:25.845Z,25.02
2022-07-30T11:07:23.997Z,25.27
2022-07-30T11:10:09.204Z,25.25
2022-07-30T11:12:42.190Z,24.80
2022-07-30T11:15:19.015Z,24.85
2022-07-30T11:18:12.238Z,24.19
2022-07-30T11:20:40.611Z,24.25
2022-07-30T11:23:20.698Z,24.54
2022-07-30T11:25:51.370Z,24.94
2022-07-30T11:28:37.571Z,24.61
2022-07-30T11:31:30.787Z,24.56
2022-07-30T11:34:18.170Z,24.54
2022-07-30T11:37:18.269Z,24.90
2022-07-30T11:39:55.186Z,25.62
2022-07-30T11:42:39.173Z,25.59
2022-07-30T11:45:20.028Z,24.33
2022-07-30T11:47:55.395Z,24.54
2022-07-30T11:50:25.818Z,24.63
2022-07-30T11:52:54.049Z,25.14
2022-07-30T11:55:42.363Z,25.67
2022-07-30T11:58:25.002Z,25.68
2022-07-30T12:00:52.496Z,26.60
2022-07-30T12:03:21.293Z,25.77
2022-07-30T12:05:53.126Z,25.42
2022-07-30T12:08:35.929Z,24.99
2022-07-30T12:11:03.236Z,25.51
2022-07-30T12:13:45.074Z,25.51
2022-07-30T12:16:18.274Z,26.16
2022-07-30T12:18:45.865Z,26.56
2022-07-30T12:21:15.608Z,26.00
2022-07-30T12:23:43.595Z,25.16
2022-07-30T12:26:31.553Z,25.20
2022-07-30T12:29:00.684Z,24.88
2022-07-30T12:31:27.514Z,24.47
2022-07-30T12:33:58.255Z,24.48
2022-07-30T12:36:44.097Z,24.81
2022-07-30T12:39:19.258Z,24.66
2022-07-30T12:41:48.155Z,23.98
2022-07-30T12:44:33.785Z,23.95
2022-07-30T12:47:00.902Z,24.24
2022-07-30T12:49:37.744Z,23.74
2022-07-30T12:52:13.163Z,23.90
2022-07-30T12:54:40.492Z,23.51
2022-07-30T12:57:07.271Z,24.45
2022-07-30T12:59:35.276Z,24.51
2022-07-30T13:02:03.588Z,24.61
2022-07-30T13:04:31.508Z,24.82
2022-07-30T13:07:09.578Z,25.83
2022-07-30T13:09:36.987Z,25.82
2022-07-30T13:12:04.445Z,25.56
2022-07-30T13:14:30.942Z,26.34
2022-07-30T13:16:58.256Z,25.77
2022-07-30T13:19:26.511Z,25.73
2022-07-30T13:21:53.024Z,24.84
2022-07-30T13:24:19.749Z,24.34
2022-07-30T13:26:46.718Z,24.55
2022-07-30T13:29:13.618Z,24.25
2022-07-30T13:31:42.808Z,24.43
2022-07-30T13:34:09.974Z,23.43
2022-07-30T13:36:36.577Z,23.64
2022-07-30T13:39:03.321Z,23.57
2022-07-30T13:41:30.125Z,23.48
2022-07-30T13:43:56.619Z,23.52
2022-07-30T13:46:23.160Z,23.33
2022-07-30T13:48:49.920Z,23.37
2022-07-30T13:51:16.578Z,23.36
2022-07-30T13:53:43.208Z,22.85
2022-07-30T13:56:12.873Z,23.07
2022-07-30T13:58:40.460Z,22.37
2022-07-30T14:01:07.101Z,22.01
2022-07-30T14:03:35.114Z,22.05
2022-07-30T14:06:10.512Z,22.76
2022-07-30T14:08:37.713Z,22.89
2022-07-30T14:11:04.314Z,23.10
2022-07-30T14:13:32.332Z,22.83
2022-07-30T14:15:58.900Z,23.09
2022-07-30T14:18:25.341Z,23.25
2022-07-30T14:20:53.589Z,23.63
2022-07-30T14:23:20.533Z,23.19
2022-07-30T14:25:47.256Z,23.16
2022-07-30T14:28:14.676Z,22.46
2022-07-30T14:30:41.939Z,23.09
2022-07-30T14:33:08.602Z,23.20
2022-07-30T14:35:35.464Z,23.44
2022-07-30T14:38:03.360Z,23.15
2022-07-30T14:40:30.167Z,23.66
2022-07-30T14:42:56.578Z,23.64
2022-07-30T14:45:24.608Z,23.36
2022-07-30T14:47:52.307Z,23.80
2022-07-30T14:50:19.756Z,23.81
2022-07-30T14:52:47.534Z,24.02
2022-07-30T14:55:14.269Z,24.18
2022-07-30T14:57:40.885Z,24.42
2022-07-30T15:00:12.762Z,24.36
2022-07-30T15:02:40.746Z,24.45
2022-07-30T15:05:08.205Z,24.82
2022-07-30T15:07:35.201Z,24.51
2022-07-30T15:10:02.449Z,24.06
2022-07-30T15:12:29.129Z,23.86
2022-07-30T15:14:55.640Z,23.64
2022-07-30T15:17:22.259Z,24.11
2022-07-30T15:19:50.173Z,23.34
2022-07-30T15:22:19.112Z,23.25
2022-07-30T15:24:45.576Z,22.99
2022-07-30T15:27:12.097Z,22.54
2022-07-30T15:29:38.509Z,23.57
2022-07-30T15:32:05.769Z,23.06
2022-07-30T15:34:34.284Z,22.83
2022-07-30T15:37:02.512Z,23.69
2022-07-30T15:39:29.575Z,23.13
2022-07-30T15:41:57.010Z,23.29
2022-07-30T15:44:24.212Z,23.42
2022-07-30T15:46:50.785Z,23.65
2022-07-30T15:49:19.024Z,23.31
2022-07-30T15:51:48.729Z,23.70
2022-07-30T15:54:22.597Z,23.19
2022-07-30T15:56:50.710Z,23.19
2022-07-30T15:59:17.825Z,23.90
2022-07-30T16:01:44.594Z,23.86
2022-07-30T16:04:19.061Z,23.98
2022-07-30T16:06:47.616Z,24.00
2022-07-30T16:09:14.711Z,24.36
2022-07-30T16:11:42.854Z,23.97
2022-07-30T16:14:09.663Z,24.21
2022-07-30T16:16:36.354Z,24.20
2022-07-30T16:19:02.959Z,24.20
2022-07-30T16:21:29.371Z,24.41
2022-07-30T16:23:56.678Z,25.12
2022-07-30T16:26:23.138Z,24.59
2022-07-30T16:28:49.926Z,24.45
2022-07-30T16:31:16.453Z,24.47
2022-07-30T16:33:43.202Z,24.73
2022-07-30T16:36:09.999Z,24.79
2022-07-30T16:38:36.716Z,24.45
2022-07-30T16:41:03.746Z,24.63
2022-07-30T16:43:31.828Z,24.16
2022-07-30T16:45:59.015Z,24.17
2022-07-30T16:48:26.412Z,24.22
2022-07-30T16:50:53.454Z,24.64
2022-07-30T16:53:19.968Z,24.95
2022-07-30T16:55:46.937Z,25.07
2022-07-30T16:58:13.692Z,24.48
2022-07-30T17:00:40.451Z,24.44
2022-07-30T17:03:07.115Z,25.11
2022-07-30T17:05:33.557Z,25.33
2022-07-30T17:08:00.150Z,25.70
2022-07-30T17:10:27.769Z,25.28
2022-07-30T17:12:57.138Z,25.23
2022-07-30T17:15:32.746Z,25.62
2022-07-30T17:18:00.560Z,25.81
2022-07-30T17:20:27.376Z,25.18
2022-07-30T17:22:56.469Z,25.19
2022-07-30T17:25:27.120Z,25.01
2022-07-30T17:27:55.735Z,25.02
2022-07-30T17:30:23.250Z,25.02
2022-07-30T17:32:50.708Z,24.91
2022-07-30T17:35:17.282Z,25.10
2022-07-30T17:37:43.746Z,25.14
2022-07-30T17:40:29.354Z,24.75
2022-07-30T17:43:05.514Z,24.85
2022-07-30T17:45:33.510Z,25.41
2022-07-30T17:48:01.549Z,24.50
2022-07-30T17:50:28.444Z,25.31
2022-07-30T17:52:55.394Z,25.45
2022-07-30T17:55:21.966Z,25.37
2022-07-30T17:57:48.387Z,25.76
2022-07-30T18:00:15.179Z,25.34
2022-07-30T18:02:41.882Z,25.69
2022-07-30T18:05:10.508Z,25.59
2022-07-30T18:07:39.432Z,25.09
2022-07-30T18:10:07.127Z,25.41
2022-07-30T18:12:34.369Z,25.89
2022-07-30T18:15:01.593Z,26.22
2022-07-30T18:17:28.196Z,27.19
2022-07-30T18:19:54.722Z,28.42
2022-07-30T18:22:28.216Z,28.61
2022-07-30T18:24:57.198Z,28.94
2022-07-30T18:27:23.824Z,29.35
2022-07-30T18:29:50.262Z,30.71
2022-07-30T18:32:16.795Z,29.43
2022-07-30T18:34:43.278Z,29.74
2022-07-30T18:37:09.707Z,29.94
2022-07-30T18:39:36.202Z,29.72
2022-07-30T18:42:03.587Z,30.04
2022-07-30T18:44:30.766Z,29.74
2022-07-30T18:46:57.204Z,29.97
2022-07-30T18:49:39.070Z,29.71
2022-07-30T18:52:08.369Z,29.92
2022-07-30T18:54:36.210Z,29.56
2022-07-30T18:57:03.149Z,29.74
2022-07-30T18:59:29.791Z,29.93
2022-07-30T19:01:56.323Z,29.76
2022-07-30T19:04:23.044Z,29.62
2022-07-30T19:06:49.469Z,29.99
2022-07-30T19:09:17.932Z,29.54
2022-07-30T19:11:46.100Z,29.51
2022-07-30T19:14:14.718Z,29.64
2022-07-30T19:16:46.086Z,29.68
2022-07-30T19:19:14.469Z,29.87
2022-07-30T19:21:41.444Z,30.19
2022-07-30T19:24:08.602Z,30.83
2022-07-30T19:26:39.690Z,30.49
2022-07-30T19:29:10.048Z,30.38
2022-07-30T19:31:36.606Z,30.89
2022-07-30T19:34:04.030Z,31.11
2022-07-30T19:36:30.486Z,30.57
2022-07-30T19:38:58.767Z,30.52
2022-07-30T19:41:25.300Z,30.66
2022-07-30T19:43:57.818Z,31.11
2022-07-30T19:46:25.320Z,31.29
2022-07-30T19:48:51.871Z,32.21
2022-07-30T19:51:20.953Z,32.96
2022-07-30T19:53:47.721Z,33.59
2022-07-30T19:56:14.311Z,33.70
2022-07-30T19:58:41.188Z,33.38
2022-07-30T20:01:08.325Z,33.25
2022-07-30T20:03:35.834Z,33.98
2022-07-30T20:06:05.971Z,33.25
2022-07-30T20:08:37.681Z,34.30
2022-07-30T20:11:07.135Z,33.86
2022-07-30T20:13:44.551Z,34.61
2022-07-30T20:16:13.804Z,35.26
2022-07-30T20:18:41.162Z,35.14
2022-07-30T20:21:12.617Z,35.73
2022-07-30T20:23:41.313Z,35.09
2022-07-30T20:26:13.431Z,35.56
2022-07-30T20:28:47.631Z,35.70
2022-07-30T20:31:20.809Z,36.21
2022-07-30T20:33:49.527Z,36.59
2022-07-30T20:36:18.268Z,36.86
2022-07-30T20:38:46.978Z,36.40
2022-07-30T20:41:14.747Z,37.63
2022-07-30T20:43:51.657Z,36.40
2022-07-30T20:46:20.410Z,37.11
2022-07-30T20:48:47.173Z,37.17
2022-07-30T20:51:13.799Z,37.06
2022-07-30T20:53:41.779Z,38.03
2022-07-30T20:56:12.131Z,37.36
2022-07-30T20:58:40.784Z,36.23
2022-07-30T21:01:07.754Z,37.26
2022-07-30T21:03:34.389Z,36.81
2022-07-30T21:06:03.085Z,36.74
2022-07-30T21:08:31.281Z,37.31
2022-07-30T21:10:57.757Z,37.99
2022-07-30T21:13:26.908Z,37.86
2022-07-30T21:16:02.297Z,37.90
2022-07-30T21:18:30.670Z,37.23
2022-07-30T21:20:57.489Z,37.73
2022-07-30T21:23:24.744Z,37.58
2022-07-30T21:26:01.351Z,37.66
2022-07-30T21:28:35.165Z,37.65
2022-07-30T21:31:02.813Z,37.16
2022-07-30T21:33:31.635Z,37.63
2022-07-30T21:35:59.062Z,37.42
2022-07-30T21:38:26.618Z,38.06
2022-07-30T21:40:53.645Z,38.20
2022-07-30T21:43:29.471Z,37.55
2022-07-30T21:45:56.827Z,38.11
2022-07-30T21:48:24.281Z,39.32
2022-07-30T21:50:50.750Z,40.31
2022-07-30T21:53:17.168Z,40.18
2022-07-30T21:55:56.671Z,40.45
2022-07-30T21:58:24.094Z,40.47
2022-07-30T22:00:54.906Z,40.43
2022-07-30T22:04:05.103Z,40.46
2022-07-30T22:10:21.459Z,41.43
2022-07-30T22:12:48.511Z,41.11
2022-07-30T22:15:15.159Z,41.23
2022-07-30T22:18:00.540Z,40.94
2022-07-30T22:24:33.887Z,40.61
2022-07-30T22:27:09.720Z,40.97
2022-07-30T22:29:41.494Z,40.69
2022-07-30T22:32:09.639Z,41.03
2022-07-30T22:34:37.325Z,40.91
2022-07-30T22:37:03.773Z,40.52
2022-07-30T22:39:31.697Z,40.77
2022-07-30T22:42:16.022Z,40.45
2022-07-30T22:44:46.258Z,40.68
2022-07-30T22:47:18.787Z,41.55
2022-07-30T22:49:52.063Z,40.58
2022-07-30T22:52:28.928Z,41.44
2022-07-30T22:57:43.382Z,43.12
2022-07-30T23:00:27.349Z,42.56
2022-07-30T23:02:56.150Z,42.75
2022-07-30T23:05:22.714Z,42.48
2022-07-30T23:07:50.353Z,43.36
2022-07-30T23:10:18.673Z,42.99
2022-07-30T23:12:30.761Z,42.55
2022-07-30T23:13:04.825Z,43.24
2022-07-30T23:15:31.455Z,43.59
2022-07-30T23:17:57.938Z,44.16
2022-07-30T23:20:26.736Z,44.18
2022-07-30T23:22:53.199Z,44.10
2022-07-30T23:25:19.674Z,43.85
2022-07-30T23:27:46.781Z,43.65
2022-07-30T23:30:13.680Z,43.71
2022-07-30T23:32:40.344Z,44.06
2022-07-30T23:35:08.869Z,43.93
2022-07-30T23:37:49.174Z,44.30
2022-07-30T23:40:19.161Z,44.73
2022-07-30T23:42:46.725Z,44.62
2022-07-30T23:45:13.215Z,44.18
2022-07-30T23:47:52.951Z,44.03
2022-07-30T23:50:26.491Z,43.71
2022-07-30T23:52:53.071Z,44.00
2022-07-30T23:55:19.575Z,44.54
2022-07-30T23:57:46.077Z,44.64
